Time;durP1;ratioP1;P1;durP2;ratioP2;P2;SDS_P1;SDS_P2;PMS_P1;PMS_P2;Temp;Humidity;BMP_temperature;BMP_pressure;BME280_temperature;BME280_humidity;BME280_pressure;Samples;Min_cycle;Max_cycle;Signal;HPM_P1;HPM_P2
2023/06/07 00:00:07;;;;;;;6.35;4.63;;;;;;;;;;4974803;28;20212;-83
2023/06/07 00:02:38;;;;;;;6.60;5.10;;;;;;;;;;5014445;28;20713;-83
2023/06/07 00:05:05;;;;;;;7.97;5.03;;;;;;;;;;5012015;28;20243;-82
2023/06/07 00:07:32;;;;;;;9.38;5.85;;;;;;;;;;5006280;28;20259;-83
2023/06/07 00:10:00;;;;;;;5.82;4.85;;;;;;;;;;4997519;28;20223;-84
2023/06/07 00:12:27;;;;;;;7.07;5.35;;;;;;;;;;5005315;28;20224;-83
2023/06/07 00:14:54;;;;;;;7.68;4.85;;;;;;;;;;4987585;28;20267;-82
2023/06/07 00:17:20;;;;;;;8.05;5.15;;;;;;;;;;4983936;28;20239;-81
2023/06/07 00:19:46;;;;;;;8.10;4.95;;;;;;;;;;4997113;28;20228;-84
2023/06/07 00:22:12;;;;;;;7.78;5.18;;;;;;;;;;5007874;28;20235;-82
2023/06/07 00:24:39;;;;;;;10.68;5.30;;;;;;;;;;5008965;28;20221;-80
2023/06/07 00:27:05;;;;;;;7.10;4.82;;;;;;;;;;4997326;28;20239;-83
2023/06/07 00:29:33;;;;;;;7.38;5.18;;;;;;;;;;5038392;28;20224;-83
2023/06/07 00:31:58;;;;;;;9.35;5.50;;;;;;;;;;4978897;28;20324;-82
2023/06/07 00:34:26;;;;;;;10.95;5.95;;;;;;;;;;4991583;28;20231;-84
2023/06/07 00:36:51;;;;;;;7.57;5.38;;;;;;;;;;5012562;28;20231;-82
2023/06/07 00:39:17;;;;;;;9.63;5.43;;;;;;;;;;5007163;28;20224;-84
2023/06/07 00:41:42;;;;;;;8.55;5.38;;;;;;;;;;4993091;28;20224;-83
2023/06/07 00:44:08;;;;;;;8.10;5.78;;;;;;;;;;5024341;28;20224;-83
2023/06/07 00:46:33;;;;;;;8.10;4.93;;;;;;;;;;4990168;28;20229;-83
2023/06/07 00:49:01;;;;;;;7.13;5.20;;;;;;;;;;5012039;28;20220;-83
2023/06/07 00:51:30;;;;;;;6.80;5.32;;;;;;;;;;5049169;28;20224;-82
2023/06/07 00:53:59;;;;;;;7.60;5.65;;;;;;;;;;4984010;28;20236;-81
2023/06/07 00:56:26;;;;;;;7.00;5.03;;;;;;;;;;5001157;28;20292;-82
2023/06/07 00:58:51;;;;;;;8.10;5.43;;;;;;;;;;4985199;28;20221;-79
2023/06/07 01:01:17;;;;;;;7.90;5.18;;;;;;;;;;4994326;28;20569;-83
2023/06/07 01:03:43;;;;;;;9.65;5.40;;;;;;;;;;4980992;28;20613;-82
2023/06/07 01:06:13;;;;;;;8.50;5.78;;;;;;;;;;4972189;28;20224;-82
2023/06/07 01:08:39;;;;;;;7.40;5.40;;;;;;;;;;5004453;28;20209;-81
2023/06/07 01:11:08;;;;;;;6.35;5.63;;;;;;;;;;4997251;28;21000;-80
2023/06/07 01:13:33;;;;;;;9.10;5.60;;;;;;;;;;4981158;28;20224;-82
2023/06/07 01:15:59;;;;;;;8.43;5.60;;;;;;;;;;4952107;28;20291;-82
2023/06/07 01:18:24;;;;;;;10.02;5.97;;;;;;;;;;5007820;28;20216;-83
2023/06/07 01:20:54;;;;;;;9.23;6.40;;;;;;;;;;4997003;28;20646;-80
2023/06/07 01:23:31;;;;;;;8.70;5.80;;;;;;;;;;4977370;28;21175;-81
2023/06/07 01:25:58;;;;;;;9.07;6.10;;;;;;;;;;5010033;28;20287;-83
2023/06/07 01:28:26;;;;;;;10.73;6.40;;;;;;;;;;4976829;28;20212;-84
2023/06/07 01:30:52;;;;;;;9.43;6.25;;;;;;;;;;5020016;28;20375;-80
2023/06/07 01:33:22;;;;;;;10.38;6.18;;;;;;;;;;4968144;28;20333;-81
2023/06/07 01:35:48;;;;;;;8.52;6.22;;;;;;;;;;5027496;28;20234;-78
2023/06/07 01:38:14;;;;;;;8.38;5.70;;;;;;;;;;5012103;28;20224;-79
2023/06/07 01:40:41;;;;;;;8.90;5.97;;;;;;;;;;4980066;28;20707;-81
2023/06/07 01:43:09;;;;;;;11.82;6.40;;;;;;;;;;5006496;28;20347;-81
2023/06/07 01:45:37;;;;;;;8.85;6.35;;;;;;;;;;4968953;28;20229;-79
2023/06/07 01:48:03;;;;;;;10.83;6.80;;;;;;;;;;4977488;28;20215;-81
2023/06/07 01:50:29;;;;;;;8.02;6.80;;;;;;;;;;4993486;28;20227;-80
2023/06/07 01:52:54;;;;;;;8.90;6.67;;;;;;;;;;4989975;28;20224;-82
2023/06/07 01:55:23;;;;;;;8.67;7.10;;;;;;;;;;4994166;28;20221;-81
2023/06/07 01:57:58;;;;;;;9.30;7.28;;;;;;;;;;4986164;28;20229;-81
2023/06/07 02:00:32;;;;;;;10.13;7.30;;;;;;;;;;5012016;28;20227;-80
2023/06/07 02:03:00;;;;;;;9.93;7.43;;;;;;;;;;4983296;28;20235;-82
2023/06/07 02:05:32;;;;;;;10.30;7.50;;;;;;;;;;5010187;28;20224;-80
2023/06/07 02:08:02;;;;;;;9.67;7.27;;;;;;;;;;4978133;28;20638;-83
2023/06/07 02:10:32;;;;;;;9.82;7.20;;;;;;;;;;5024427;28;20220;-78
2023/06/07 02:12:58;;;;;;;8.90;7.50;;;;;;;;;;4992660;28;20247;-82
2023/06/07 02:15:24;;;;;;;12.73;8.23;;;;;;;;;;4984613;28;20224;-82
2023/06/07 02:17:58;;;;;;;8.27;6.93;;;;;;;;;;4992051;28;20239;-81
2023/06/07 02:20:25;;;;;;;8.63;7.10;;;;;;;;;;4996825;28;20282;-83
2023/06/07 02:22:53;;;;;;;9.23;7.23;;;;;;;;;;5000169;28;20246;-85
2023/06/07 02:25:22;;;;;;;11.80;8.20;;;;;;;;;;5003918;28;20316;-83
2023/06/07 02:27:48;;;;;;;11.93;7.50;;;;;;;;;;4991715;28;20231;-83
2023/06/07 02:30:13;;;;;;;8.33;7.10;;;;;;;;;;4976169;28;20232;-83
2023/06/07 02:32:39;;;;;;;9.63;7.63;;;;;;;;;;4992281;28;20247;-82
2023/06/07 02:35:08;;;;;;;8.13;7.23;;;;;;;;;;5002522;28;20213;-84
2023/06/07 02:37:35;;;;;;;10.30;7.43;;;;;;;;;;5010246;28;20644;-82
2023/06/07 02:40:09;;;;;;;9.85;7.43;;;;;;;;;;5026609;28;20217;-81
2023/06/07 02:42:38;;;;;;;10.87;7.37;;;;;;;;;;4983574;28;20828;-82
2023/06/07 02:45:04;;;;;;;8.50;7.43;;;;;;;;;;4979478;28;20224;-80
2023/06/07 02:47:32;;;;;;;8.97;7.17;;;;;;;;;;4995241;28;20225;-80
2023/06/07 02:50:00;;;;;;;12.50;7.40;;;;;;;;;;5004581;28;20301;-83
2023/06/07 02:52:26;;;;;;;12.17;7.53;;;;;;;;;;4973110;28;20328;-82
2023/06/07 02:54:52;;;;;;;10.13;6.93;;;;;;;;;;5017129;28;20282;-82
2023/06/07 02:57:18;;;;;;;11.83;7.97;;;;;;;;;;5011818;28;20220;-81
2023/06/07 02:59:44;;;;;;;7.88;6.97;;;;;;;;;;5012228;28;20251;-85
2023/06/07 03:02:12;;;;;;;11.57;7.47;;;;;;;;;;4981866;28;20698;-80
2023/06/07 03:04:40;;;;;;;10.00;7.53;;;;;;;;;;4981190;28;20227;-81
2023/06/07 03:07:06;;;;;;;12.40;7.55;;;;;;;;;;5024805;28;20970;-83
2023/06/07 03:09:39;;;;;;;12.73;7.63;;;;;;;;;;4996362;28;20230;-83
2023/06/07 03:12:10;;;;;;;9.93;6.90;;;;;;;;;;5012469;28;20269;-81
2023/06/07 03:14:44;;;;;;;10.27;7.57;;;;;;;;;;5012277;28;20596;-83
2023/06/07 03:17:12;;;;;;;11.03;7.37;;;;;;;;;;4996269;28;20230;-85
2023/06/07 03:19:42;;;;;;;12.10;7.53;;;;;;;;;;4983237;28;20208;-83
2023/06/07 03:22:08;;;;;;;11.40;7.00;;;;;;;;;;4991552;28;20278;-86
2023/06/07 03:24:38;;;;;;;10.33;7.57;;;;;;;;;;4982399;28;20701;-82
2023/06/07 03:27:08;;;;;;;8.93;7.00;;;;;;;;;;5013894;28;20250;-84
2023/06/07 03:29:36;;;;;;;9.67;7.27;;;;;;;;;;5009787;28;20287;-84
2023/06/07 03:32:03;;;;;;;9.10;7.13;;;;;;;;;;5009280;28;20242;-84
2023/06/07 03:34:34;;;;;;;11.80;7.67;;;;;;;;;;5012627;28;20216;-83
2023/06/07 03:37:02;;;;;;;9.63;7.27;;;;;;;;;;4981266;28;20217;-82
2023/06/07 03:39:31;;;;;;;11.40;7.20;;;;;;;;;;4998750;28;20755;-83
2023/06/07 03:41:56;;;;;;;11.70;7.00;;;;;;;;;;5042447;28;20280;-81
2023/06/07 03:44:25;;;;;;;10.67;7.10;;;;;;;;;;5023726;28;20240;-87
2023/06/07 03:46:55;;;;;;;11.38;6.72;;;;;;;;;;4952688;28;20246;-87
2023/06/07 03:49:24;;;;;;;10.40;7.07;;;;;;;;;;4991156;28;20212;-86
2023/06/07 03:51:53;;;;;;;8.07;6.78;;;;;;;;;;5016746;28;20217;-85
2023/06/07 03:54:25;;;;;;;11.23;7.20;;;;;;;;;;4996942;28;20231;-86
2023/06/07 03:56:50;;;;;;;11.07;7.22;;;;;;;;;;5028004;28;20753;-86
2023/06/07 03:59:20;;;;;;;9.52;6.68;;;;;;;;;;4997839;28;20220;-85
2023/06/07 04:01:48;;;;;;;11.25;6.43;;;;;;;;;;4978435;28;20694;-87
2023/06/07 04:04:16;;;;;;;11.30;6.80;;;;;;;;;;4998445;28;20251;-87
2023/06/07 04:06:41;;;;;;;8.93;6.33;;;;;;;;;;4998230;28;20232;-85
2023/06/07 04:09:10;;;;;;;8.63;6.25;;;;;;;;;;4992435;28;20224;-84
2023/06/07 04:11:38;;;;;;;8.40;6.50;;;;;;;;;;5010145;28;20239;-86
2023/06/07 04:14:07;;;;;;;8.87;6.47;;;;;;;;;;5026760;28;20217;-88
2023/06/07 04:16:36;;;;;;;12.37;6.67;;;;;;;;;;4982620;28;20216;-88
2023/06/07 04:19:08;;;;;;;9.17;6.73;;;;;;;;;;4984893;28;20224;-87
2023/06/07 04:21:34;;;;;;;9.40;6.45;;;;;;;;;;4993942;28;20220;-88
2023/06/07 04:24:04;;;;;;;12.50;6.78;;;;;;;;;;4982122;28;20219;-86
2023/06/07 04:26:32;;;;;;;8.93;6.17;;;;;;;;;;4967020;28;20224;-86
2023/06/07 04:28:58;;;;;;;7.88;6.70;;;;;;;;;;5026202;28;20780;-88
2023/06/07 04:31:29;;;;;;;7.20;6.50;;;;;;;;;;5000443;28;20246;-89
2023/06/07 04:33:57;;;;;;;9.60;6.13;;;;;;;;;;4998809;28;20230;-87
2023/06/07 04:36:25;;;;;;;8.15;6.15;;;;;;;;;;4963880;28;20220;-86
2023/06/07 04:38:56;;;;;;;7.37;6.07;;;;;;;;;;4994893;28;20307;-88
2023/06/07 04:41:30;;;;;;;8.07;6.00;;;;;;;;;;4983291;28;20772;-87
2023/06/07 04:43:57;;;;;;;8.25;6.05;;;;;;;;;;4993719;28;20218;-86
2023/06/07 04:46:31;;;;;;;9.20;5.93;;;;;;;;;;5016284;28;20215;-86
2023/06/07 04:48:58;;;;;;;7.43;5.70;;;;;;;;;;5010212;28;20269;-86
2023/06/07 04:51:26;;;;;;;7.82;5.70;;;;;;;;;;4987722;28;20251;-87
2023/06/07 04:54:04;;;;;;;9.10;6.00;;;;;;;;;;4984657;28;20215;-87
2023/06/07 04:56:35;;;;;;;7.80;5.15;;;;;;;;;;4978752;28;20682;-87
2023/06/07 04:59:04;;;;;;;9.77;5.55;;;;;;;;;;4984872;28;20211;-85
2023/06/07 05:01:35;;;;;;;7.70;5.30;;;;;;;;;;4985875;28;20212;-87
2023/06/07 05:04:02;;;;;;;7.00;5.13;;;;;;;;;;4982667;28;20220;-87
2023/06/07 05:06:37;;;;;;;7.55;5.30;;;;;;;;;;4981517;28;20319;-88
2023/06/07 05:09:05;;;;;;;7.67;4.77;;;;;;;;;;4973706;28;20224;-87
2023/06/07 05:11:32;;;;;;;7.15;5.32;;;;;;;;;;4981765;28;20232;-87
2023/06/07 05:14:00;;;;;;;7.53;5.40;;;;;;;;;;4989203;28;20224;-88
2023/06/07 05:16:27;;;;;;;8.07;5.15;;;;;;;;;;4983627;28;20317;-89
2023/06/07 05:18:56;;;;;;;9.43;5.57;;;;;;;;;;5014766;28;20216;-85
2023/06/07 05:21:22;;;;;;;7.38;5.35;;;;;;;;;;4981305;28;20228;-86
2023/06/07 05:23:49;;;;;;;8.90;5.80;;;;;;;;;;5017405;28;20212;-86
2023/06/07 05:26:15;;;;;;;8.00;5.55;;;;;;;;;;5011916;28;20220;-86
2023/06/07 05:28:41;;;;;;;7.72;5.10;;;;;;;;;;5012845;28;20651;-86
2023/06/07 05:31:11;;;;;;;7.65;5.45;;;;;;;;;;5003764;28;20238;-87
2023/06/07 05:33:38;;;;;;;6.97;4.90;;;;;;;;;;4968828;28;20274;-89
2023/06/07 05:36:04;;;;;;;7.25;5.20;;;;;;;;;;5013658;28;20220;-88
2023/06/07 05:38:32;;;;;;;6.88;4.93;;;;;;;;;;5013807;28;20223;-86
2023/06/07 05:40:58;;;;;;;8.15;4.78;;;;;;;;;;4980337;28;20217;-86
2023/06/07 05:43:23;;;;;;;9.20;5.20;;;;;;;;;;4991282;28;20230;-88
2023/06/07 05:45:49;;;;;;;5.63;4.90;;;;;;;;;;4981325;28;20220;-86
2023/06/07 05:48:15;;;;;;;6.00;4.68;;;;;;;;;;4980511;28;20230;-88
2023/06/07 05:50:41;;;;;;;7.97;4.45;;;;;;;;;;4978848;28;20216;-89
2023/06/07 05:53:06;;;;;;;9.35;5.03;;;;;;;;;;4994622;28;20220;-88
2023/06/07 05:55:36;;;;;;;5.72;4.70;;;;;;;;;;4988175;28;20299;-86
2023/06/07 05:58:03;;;;;;;8.02;4.63;;;;;;;;;;4992095;28;20299;-87
2023/06/07 06:00:31;;;;;;;8.55;4.70;;;;;;;;;;4986693;28;20216;-88
2023/06/07 06:03:01;;;;;;;7.15;4.32;;;;;;;;;;4983776;28;20227;-87
2023/06/07 06:05:32;;;;;;;8.43;4.50;;;;;;;;;;4992827;28;20220;-86
2023/06/07 06:08:05;;;;;;;6.18;4.35;;;;;;;;;;4977870;28;20220;-87
2023/06/07 06:10:31;;;;;;;5.47;4.30;;;;;;;;;;4955717;28;20796;-86
2023/06/07 06:12:58;;;;;;;5.18;4.45;;;;;;;;;;4966892;28;20232;-85
2023/06/07 06:15:24;;;;;;;8.65;4.78;;;;;;;;;;4963490;28;20240;-87
2023/06/07 06:17:53;;;;;;;5.18;3.90;;;;;;;;;;5014411;28;20220;-88
2023/06/07 06:20:20;;;;;;;8.88;4.97;;;;;;;;;;5000439;28;20217;-87
2023/06/07 06:22:45;;;;;;;5.78;3.88;;;;;;;;;;5036715;28;20228;-86
2023/06/07 06:25:13;;;;;;;6.28;4.32;;;;;;;;;;4996764;28;20220;-87
2023/06/07 06:27:39;;;;;;;6.03;4.32;;;;;;;;;;4993466;28;20234;-88
2023/06/07 06:30:05;;;;;;;6.18;4.07;;;;;;;;;;5015167;28;20669;-87
2023/06/07 06:32:30;;;;;;;5.78;4.00;;;;;;;;;;4994947;28;20228;-87
2023/06/07 06:34:56;;;;;;;5.80;4.25;;;;;;;;;;5000909;28;20223;-85
2023/06/07 06:37:21;;;;;;;5.30;4.07;;;;;;;;;;4979420;28;20258;-88
2023/06/07 06:39:48;;;;;;;11.52;4.22;;;;;;;;;;4978889;28;20226;-88
2023/06/07 06:42:13;;;;;;;5.90;4.40;;;;;;;;;;5016231;28;20303;-86
2023/06/07 06:44:59;;;;;;;5.43;4.13;;;;;;;;;;4982209;28;20221;-87
2023/06/07 06:47:27;;;;;;;8.75;4.40;;;;;;;;;;4997229;28;20262;-87
2023/06/07 06:49:54;;;;;;;7.85;4.40;;;;;;;;;;4990868;28;20645;-87
2023/06/07 06:52:22;;;;;;;5.85;4.10;;;;;;;;;;5018192;28;20232;-86
2023/06/07 06:54:47;;;;;;;6.63;4.35;;;;;;;;;;4979477;28;20228;-88
2023/06/07 06:57:13;;;;;;;4.32;3.78;;;;;;;;;;4992823;28;20311;-89
2023/06/07 06:59:41;;;;;;;7.07;3.47;;;;;;;;;;4975655;28;20239;-86
2023/06/07 07:02:07;;;;;;;6.10;3.80;;;;;;;;;;5012003;28;20682;-87
2023/06/07 07:04:32;;;;;;;5.60;4.05;;;;;;;;;;5004450;28;20219;-88
2023/06/07 07:06:58;;;;;;;6.22;3.85;;;;;;;;;;4984111;28;20247;-87
2023/06/07 07:09:23;;;;;;;7.50;4.07;;;;;;;;;;5016593;28;20242;-88
2023/06/07 07:11:51;;;;;;;5.25;3.75;;;;;;;;;;4995061;28;20216;-87
2023/06/07 07:14:16;;;;;;;7.28;4.20;;;;;;;;;;5005418;28;20232;-85
2023/06/07 07:16:42;;;;;;;7.32;4.00;;;;;;;;;;4980832;28;20224;-86
2023/06/07 07:19:10;;;;;;;6.45;4.10;;;;;;;;;;4989809;28;20232;-86
2023/06/07 07:21:35;;;;;;;5.13;3.90;;;;;;;;;;5024432;28;20228;-89
2023/06/07 07:24:01;;;;;;;6.07;3.92;;;;;;;;;;4992389;28;20685;-86
2023/06/07 07:26:28;;;;;;;5.25;3.80;;;;;;;;;;4978514;28;20242;-87
2023/06/07 07:28:54;;;;;;;5.55;4.07;;;;;;;;;;5015040;28;20224;-86
2023/06/07 07:31:21;;;;;;;8.00;4.35;;;;;;;;;;4993539;28;20607;-86
2023/06/07 07:33:48;;;;;;;5.53;3.70;;;;;;;;;;5008379;28;20280;-86
2023/06/07 07:36:21;;;;;;;8.10;4.60;;;;;;;;;;5026483;28;20292;-85
2023/06/07 07:38:47;;;;;;;5.38;4.38;;;;;;;;;;4984604;28;20216;-86
2023/06/07 07:41:15;;;;;;;8.82;4.10;;;;;;;;;;4999624;28;20220;-84
2023/06/07 07:43:41;;;;;;;6.53;4.07;;;;;;;;;;5028382;28;20208;-87
2023/06/07 07:46:11;;;;;;;5.15;3.78;;;;;;;;;;4972902;28;20749;-85
2023/06/07 07:48:36;;;;;;;6.55;4.18;;;;;;;;;;4989800;28;20224;-85
2023/06/07 07:51:04;;;;;;;6.32;3.83;;;;;;;;;;4981909;28;21037;-87
2023/06/07 07:53:31;;;;;;;6.60;3.80;;;;;;;;;;4999190;28;20221;-85
2023/06/07 07:55:57;;;;;;;5.63;3.50;;;;;;;;;;5000157;28;20681;-83
2023/06/07 07:58:25;;;;;;;5.78;3.58;;;;;;;;;;4979116;28;20227;-88
2023/06/07 08:00:53;;;;;;;4.35;3.90;;;;;;;;;;4980608;28;20213;-88
2023/06/07 08:03:21;;;;;;;5.60;4.10;;;;;;;;;;4982212;28;20231;-86
2023/06/07 08:05:49;;;;;;;6.10;4.10;;;;;;;;;;5013619;28;20220;-87
2023/06/07 08:08:16;;;;;;;5.85;4.25;;;;;;;;;;4985002;28;20224;-86
2023/06/07 08:10:45;;;;;;;5.07;3.80;;;;;;;;;;5016320;28;20235;-87
2023/06/07 08:13:10;;;;;;;4.20;3.65;;;;;;;;;;4979781;28;20248;-84
2023/06/07 08:15:38;;;;;;;7.22;4.47;;;;;;;;;;5013750;28;20236;-85
2023/06/07 08:18:04;;;;;;;4.80;3.72;;;;;;;;;;4974101;28;20219;-86
2023/06/07 08:20:30;;;;;;;6.65;4.00;;;;;;;;;;5000995;28;20283;-87
2023/06/07 08:23:00;;;;;;;6.18;4.10;;;;;;;;;;4981422;28;20219;-87
2023/06/07 08:25:28;;;;;;;5.78;3.83;;;;;;;;;;5044391;28;20229;-86
2023/06/07 08:27:59;;;;;;;5.88;3.80;;;;;;;;;;5002677;28;20223;-86
2023/06/07 08:30:25;;;;;;;5.95;3.80;;;;;;;;;;5012888;28;20846;-84
2023/06/07 08:32:50;;;;;;;6.50;3.92;;;;;;;;;;4984799;28;20239;-85
2023/06/07 08:35:18;;;;;;;4.63;3.60;;;;;;;;;;4984611;28;20215;-84
2023/06/07 08:37:43;;;;;;;7.35;3.95;;;;;;;;;;4982579;28;20217;-85
2023/06/07 08:40:14;;;;;;;7.75;4.07;;;;;;;;;;5026165;28;20232;-84
2023/06/07 08:42:39;;;;;;;5.90;3.80;;;;;;;;;;5030255;28;20226;-86
2023/06/07 08:45:05;;;;;;;4.93;3.75;;;;;;;;;;4977713;28;20219;-86
2023/06/07 08:47:33;;;;;;;4.25;3.85;;;;;;;;;;4972539;28;20568;-84
2023/06/07 08:50:00;;;;;;;5.65;4.03;;;;;;;;;;5013259;28;20216;-83
2023/06/07 08:52:26;;;;;;;6.00;3.90;;;;;;;;;;5020312;28;20787;-81
2023/06/07 08:54:55;;;;;;;5.50;3.95;;;;;;;;;;5017437;28;20293;-84
2023/06/07 08:57:21;;;;;;;7.18;4.00;;;;;;;;;;5021107;28;20225;-86
2023/06/07 08:59:48;;;;;;;6.70;3.85;;;;;;;;;;4977406;28;20223;-87
2023/06/07 09:02:16;;;;;;;5.20;3.40;;;;;;;;;;4976043;28;20201;-87
2023/06/07 09:04:41;;;;;;;5.63;3.70;;;;;;;;;;4991838;28;20212;-87
2023/06/07 09:07:13;;;;;;;6.28;3.78;;;;;;;;;;4975907;28;20227;-87
2023/06/07 09:09:40;;;;;;;5.13;3.40;;;;;;;;;;4981660;28;20216;-85
2023/06/07 09:12:06;;;;;;;7.15;3.88;;;;;;;;;;5007405;28;20590;-84
2023/06/07 09:14:34;;;;;;;6.35;3.83;;;;;;;;;;4997688;28;20227;-83
2023/06/07 09:17:00;;;;;;;6.03;3.65;;;;;;;;;;4981229;28;20779;-85
2023/06/07 09:19:38;;;;;;;5.80;3.42;;;;;;;;;;4990671;28;20223;-86
2023/06/07 09:22:05;;;;;;;4.45;3.60;;;;;;;;;;4982387;28;20212;-87
2023/06/07 09:24:31;;;;;;;5.10;3.40;;;;;;;;;;4982668;28;20303;-87
2023/06/07 09:26:57;;;;;;;4.93;3.65;;;;;;;;;;5005452;28;20250;-87
2023/06/07 09:29:29;;;;;;;4.38;3.65;;;;;;;;;;4995738;28;20243;-85
2023/06/07 09:32:16;;;;;;;4.82;3.30;;;;;;;;;;4978384;28;21053;-84
2023/06/07 09:34:42;;;;;;;5.45;3.40;;;;;;;;;;5011222;28;20215;-85
2023/06/07 09:37:07;;;;;;;4.07;3.67;;;;;;;;;;5006694;28;20246;-83
2023/06/07 09:39:37;;;;;;;4.10;3.70;;;;;;;;;;5000269;28;20213;-88
2023/06/07 09:42:12;;;;;;;6.75;3.65;;;;;;;;;;4983892;28;20208;-83
2023/06/07 09:44:38;;;;;;;4.47;3.55;;;;;;;;;;4994760;28;20220;-86
2023/06/07 09:47:09;;;;;;;3.83;3.50;;;;;;;;;;4988711;28;20558;-84
2023/06/07 09:49:37;;;;;;;4.15;3.58;;;;;;;;;;5009600;28;20230;-86
2023/06/07 09:52:03;;;;;;;4.78;3.83;;;;;;;;;;4986304;28;20220;-85
2023/06/07 09:54:38;;;;;;;4.68;3.83;;;;;;;;;;5003482;28;20639;-88
2023/06/07 09:57:10;;;;;;;5.20;3.90;;;;;;;;;;4994481;28;20307;-81
2023/06/07 09:59:39;;;;;;;4.20;3.78;;;;;;;;;;4993732;28;20232;-78
2023/06/07 10:02:25;;;;;;;4.32;3.88;;;;;;;;;;4997516;28;20641;-81
2023/06/07 10:04:52;;;;;;;5.22;3.40;;;;;;;;;;5014285;28;20665;-81
2023/06/07 10:07:19;;;;;;;5.55;3.80;;;;;;;;;;5053519;28;20262;-80
2023/06/07 10:09:52;;;;;;;4.30;3.90;;;;;;;;;;5008310;28;20243;-79
2023/06/07 10:12:23;;;;;;;5.07;3.70;;;;;;;;;;5009271;28;20225;-86
2023/06/07 10:14:48;;;;;;;5.18;4.15;;;;;;;;;;5004896;28;20219;-87
2023/06/07 10:17:14;;;;;;;6.57;4.20;;;;;;;;;;4990162;28;20223;-87
2023/06/07 10:19:42;;;;;;;5.53;4.10;;;;;;;;;;4997974;28;20633;-86
2023/06/07 10:22:11;;;;;;;5.18;3.70;;;;;;;;;;4987373;28;20707;-82
2023/06/07 10:24:51;;;;;;;4.88;3.63;;;;;;;;;;4992709;28;20224;-88
2023/06/07 10:27:17;;;;;;;4.32;3.42;;;;;;;;;;4982802;28;20265;-89
2023/06/07 10:29:58;;;;;;;4.70;3.53;;;;;;;;;;4981388;28;20220;-89
2023/06/07 10:32:26;;;;;;;4.18;3.67;;;;;;;;;;4995802;28;20636;-91
2023/06/07 10:34:55;;;;;;;4.40;3.60;;;;;;;;;;4998561;28;20694;-88
2023/06/07 10:37:20;;;;;;;5.15;3.42;;;;;;;;;;5034752;28;20235;-87
2023/06/07 10:39:46;;;;;;;4.32;3.50;;;;;;;;;;5005744;28;20240;-86
2023/06/07 10:42:15;;;;;;;5.63;3.58;;;;;;;;;;4983097;28;20200;-87
2023/06/07 10:44:43;;;;;;;4.07;3.67;;;;;;;;;;5001969;28;20231;-86
2023/06/07 10:47:27;;;;;;;4.78;3.58;;;;;;;;;;4996315;28;20227;-88
2023/06/07 10:49:56;;;;;;;4.35;3.53;;;;;;;;;;4986841;28;20228;-86
2023/06/07 10:52:22;;;;;;;4.13;3.47;;;;;;;;;;4996064;28;20233;-87
2023/06/07 10:54:48;;;;;;;4.20;3.60;;;;;;;;;;4993569;28;20247;-89
2023/06/07 10:57:13;;;;;;;3.80;3.40;;;;;;;;;;4991105;28;20255;-89
2023/06/07 10:59:41;;;;;;;3.72;3.42;;;;;;;;;;4998181;28;20216;-85
2023/06/07 11:02:22;;;;;;;3.25;3.05;;;;;;;;;;4984519;28;20224;-86
2023/06/07 11:04:48;;;;;;;3.40;3.10;;;;;;;;;;5017113;28;20223;-86
2023/06/07 11:07:27;;;;;;;4.30;3.03;;;;;;;;;;5021683;28;20852;-87
2023/06/07 11:10:05;;;;;;;4.47;3.28;;;;;;;;;;5000705;28;20230;-84
2023/06/07 11:12:44;;;;;;;4.53;3.13;;;;;;;;;;5000515;28;20231;-86
2023/06/07 11:15:21;;;;;;;4.75;3.60;;;;;;;;;;5001620;28;20227;-89
2023/06/07 11:18:00;;;;;;;6.22;3.50;;;;;;;;;;4999819;28;20267;-85
2023/06/07 11:20:38;;;;;;;4.95;3.22;;;;;;;;;;5004366;28;20593;-88
2023/06/07 11:23:24;;;;;;;3.97;3.08;;;;;;;;;;5024798;28;20247;-86
2023/06/07 11:26:08;;;;;;;6.43;3.65;;;;;;;;;;5016889;28;20220;-90
2023/06/07 11:28:40;;;;;;;3.28;2.97;;;;;;;;;;5000358;28;20226;-87
2023/06/07 11:31:12;;;;;;;4.07;3.13;;;;;;;;;;4981183;28;20232;-89
2023/06/07 11:33:40;;;;;;;5.03;3.40;;;;;;;;;;4998508;28;20316;-87
2023/06/07 11:36:06;;;;;;;3.67;3.10;;;;;;;;;;4986696;28;20220;-87
2023/06/07 11:38:31;;;;;;;4.68;3.25;;;;;;;;;;5017295;28;20216;-86
2023/06/07 11:40:57;;;;;;;3.72;3.22;;;;;;;;;;4968758;28;20737;-90
2023/06/07 11:43:24;;;;;;;4.28;3.60;;;;;;;;;;5003250;28;20224;-85
2023/06/07 11:45:54;;;;;;;4.07;3.15;;;;;;;;;;4980735;28;20216;-84
2023/06/07 11:48:20;;;;;;;3.28;2.97;;;;;;;;;;5022345;28;20311;-85
2023/06/07 11:50:47;;;;;;;3.58;3.25;;;;;;;;;;4993931;28;20239;-87
2023/06/07 11:53:15;;;;;;;3.45;3.15;;;;;;;;;;4994473;28;20343;-88
2023/06/07 11:55:41;;;;;;;3.53;3.17;;;;;;;;;;4981845;28;20265;-87
2023/06/07 11:58:07;;;;;;;3.13;2.88;;;;;;;;;;4985342;28;20237;-87
2023/06/07 12:00:36;;;;;;;4.30;2.90;;;;;;;;;;5006289;28;20216;-86
2023/06/07 12:03:11;;;;;;;4.05;3.30;;;;;;;;;;4973394;28;20243;-86
2023/06/07 12:05:39;;;;;;;3.53;3.00;;;;;;;;;;5006404;28;20272;-89
2023/06/07 12:08:13;;;;;;;3.95;3.25;;;;;;;;;;4963245;28;20198;-89
2023/06/07 12:10:39;;;;;;;3.33;2.95;;;;;;;;;;4982101;28;20233;-87
2023/06/07 12:13:16;;;;;;;4.07;3.20;;;;;;;;;;5019469;23;20319;-73
2023/06/07 12:15:48;;;;;;;4.45;3.35;;;;;;;;;;5018530;28;20217;-73
2023/06/07 12:18:27;;;;;;;5.95;2.90;;;;;;;;;;4968254;28;20290;-72
2023/06/07 12:21:15;;;;;;;4.65;3.55;;;;;;;;;;4984330;28;20224;-72
2023/06/07 12:23:56;;;;;;;4.18;3.63;;;;;;;;;;4989267;28;20312;-71
2023/06/07 12:26:26;;;;;;;7.10;3.28;;;;;;;;;;4983000;28;20235;-70
2023/06/07 12:28:54;;;;;;;3.25;2.92;;;;;;;;;;4984305;28;20221;-72
2023/06/07 12:31:26;;;;;;;4.30;3.20;;;;;;;;;;4950023;28;20217;-71
2023/06/07 12:33:54;;;;;;;6.22;3.22;;;;;;;;;;4990439;28;20232;-75
2023/06/07 12:36:21;;;;;;;4.45;3.28;;;;;;;;;;4996520;28;20221;-72
2023/06/07 12:38:51;;;;;;;4.57;3.58;;;;;;;;;;4987001;28;20592;-72
2023/06/07 12:41:16;;;;;;;5.03;3.13;;;;;;;;;;4954893;28;20774;-71
2023/06/07 12:43:46;;;;;;;3.63;3.30;;;;;;;;;;4983731;28;20220;-73
2023/06/07 12:46:13;;;;;;;10.65;3.35;;;;;;;;;;4989320;28;20296;-72
2023/06/07 12:48:43;;;;;;;4.03;3.55;;;;;;;;;;4980871;28;20225;-72
2023/06/07 12:51:11;;;;;;;5.38;3.35;;;;;;;;;;4985010;28;20217;-73
2023/06/07 12:53:37;;;;;;;3.78;3.05;;;;;;;;;;4985307;28;20221;-73
2023/06/07 12:56:05;;;;;;;3.95;3.45;;;;;;;;;;4969593;28;20224;-73
2023/06/07 12:58:33;;;;;;;6.38;3.50;;;;;;;;;;4990013;28;20236;-77
2023/06/07 13:00:59;;;;;;;6.13;3.60;;;;;;;;;;4987986;28;20217;-74
2023/06/07 13:03:24;;;;;;;3.70;3.20;;;;;;;;;;4967806;28;20220;-74
2023/06/07 13:05:50;;;;;;;5.43;3.35;;;;;;;;;;4981021;28;20224;-75
2023/06/07 13:08:16;;;;;;;3.88;3.47;;;;;;;;;;4965222;28;20221;-75
2023/06/07 13:10:46;;;;;;;4.35;3.28;;;;;;;;;;4968773;28;20220;-74
2023/06/07 13:13:13;;;;;;;4.82;3.30;;;;;;;;;;4987666;28;20734;-74
2023/06/07 13:15:41;;;;;;;4.25;3.35;;;;;;;;;;4989323;28;20217;-75
2023/06/07 13:18:14;;;;;;;4.57;3.50;;;;;;;;;;4984060;28;20765;-75
2023/06/07 13:20:42;;;;;;;6.90;3.50;;;;;;;;;;4990573;28;20944;-75
2023/06/07 13:23:10;;;;;;;4.40;3.35;;;;;;;;;;4979210;28;20218;-73
2023/06/07 13:25:35;;;;;;;5.53;3.20;;;;;;;;;;4967065;28;20237;-75
2023/06/07 13:28:02;;;;;;;4.43;3.38;;;;;;;;;;4986493;28;20279;-77
2023/06/07 13:30:31;;;;;;;4.25;3.15;;;;;;;;;;4966251;28;20303;-75
2023/06/07 13:32:56;;;;;;;4.60;3.50;;;;;;;;;;4982601;28;20246;-76
2023/06/07 13:35:22;;;;;;;6.65;3.30;;;;;;;;;;4988462;28;20227;-75
2023/06/07 13:37:47;;;;;;;4.65;3.20;;;;;;;;;;4967116;28;20240;-76
2023/06/07 13:40:15;;;;;;;3.97;3.28;;;;;;;;;;4996570;28;20296;-75
2023/06/07 13:42:43;;;;;;;3.38;3.08;;;;;;;;;;5003466;28;20705;-75
2023/06/07 13:45:14;;;;;;;5.20;3.38;;;;;;;;;;4984883;28;20212;-75
2023/06/07 13:47:44;;;;;;;4.95;3.22;;;;;;;;;;4999961;28;20240;-72
2023/06/07 13:50:15;;;;;;;3.95;3.60;;;;;;;;;;4981576;28;20232;-76
2023/06/07 13:52:41;;;;;;;4.30;3.40;;;;;;;;;;4984014;28;20235;-74
2023/06/07 13:55:08;;;;;;;5.07;3.60;;;;;;;;;;4989797;28;20219;-74
2023/06/07 13:57:36;;;;;;;5.68;3.40;;;;;;;;;;4987002;28;20297;-76
2023/06/07 14:00:05;;;;;;;5.68;3.13;;;;;;;;;;4966990;28;20267;-75
2023/06/07 14:02:41;;;;;;;3.88;3.40;;;;;;;;;;4999273;28;20267;-74
2023/06/07 14:05:07;;;;;;;4.22;3.03;;;;;;;;;;4966486;28;20228;-75
2023/06/07 14:07:35;;;;;;;4.25;3.08;;;;;;;;;;4972031;28;20213;-74
2023/06/07 14:10:05;;;;;;;4.10;3.13;;;;;;;;;;4997968;28;20232;-77
2023/06/07 14:12:34;;;;;;;3.63;3.13;;;;;;;;;;4969918;28;20277;-76
2023/06/07 14:15:00;;;;;;;4.07;3.10;;;;;;;;;;4950864;28;20252;-75
2023/06/07 14:17:28;;;;;;;4.57;3.15;;;;;;;;;;4973035;28;20247;-76
2023/06/07 14:19:53;;;;;;;6.10;3.30;;;;;;;;;;4989971;28;20224;-77
2023/06/07 14:22:23;;;;;;;3.40;3.10;;;;;;;;;;4970025;28;20224;-76
2023/06/07 14:24:51;;;;;;;5.78;3.47;;;;;;;;;;4985720;28;20241;-76
2023/06/07 14:27:21;;;;;;;7.40;3.40;;;;;;;;;;4993376;28;20233;-76
2023/06/07 14:29:54;;;;;;;3.63;3.20;;;;;;;;;;4983385;28;20229;-76
2023/06/07 14:32:22;;;;;;;3.50;3.20;;;;;;;;;;5005006;28;20221;-75
2023/06/07 14:34:52;;;;;;;4.55;3.25;;;;;;;;;;4999756;28;20217;-77
2023/06/07 14:37:21;;;;;;;4.70;3.10;;;;;;;;;;4970650;28;20230;-75
2023/06/07 14:39:46;;;;;;;4.72;3.28;;;;;;;;;;4992292;28;20592;-76
2023/06/07 14:42:23;;;;;;;5.78;3.25;;;;;;;;;;4969420;28;20222;-76
2023/06/07 14:44:55;;;;;;;3.42;3.10;;;;;;;;;;5004536;28;20751;-77
2023/06/07 14:47:24;;;;;;;4.00;3.38;;;;;;;;;;5004757;28;20757;-77